Time;durP1;ratioP1;P1;durP2;ratioP2;P2;SDS_P1;SDS_P2;PMS_P1;PMS_P2;Temp;Humidity;BMP_temperature;BMP_pressure;BME280_temperature;BME280_humidity;BME280_pressure;Samples;Min_cycle;Max_cycle;Signal;HPM_P1;HPM_P2
2024/04/16 00:36:30;;;;;;;1.20;0.80;;;;;;;;;;6193404;23;20439;-88
2024/04/16 00:50:06;;;;;;;;;;;;;;;;;;;;;
2024/04/16 01:04:02;;;;;;;2.17;0.90;;;;;;;;;;6096298;23;20447;-89
2024/04/16 01:10:10;;;;;;;0.90;0.60;;;;;;;;;;6189685;23;20401;-91
2024/04/16 01:16:47;;;;;;;2.30;0.80;;;;;;;;;;6106052;23;20383;-89
2024/04/16 01:19:58;;;;;;;3.03;0.90;;;;;;;;;;6088317;23;20425;-90
2024/04/16 01:22:50;;;;;;;0.90;0.70;;;;;;;;;;6043163;23;20505;-91
2024/04/16 01:29:25;;;;;;;3.33;0.97;;;;;;;;;;6116549;23;20352;-90
2024/04/16 01:32:00;;;;;;;3.33;1.10;;;;;;;;;;6063916;23;20476;-90
2024/04/16 01:34:53;;;;;;;4.43;0.70;;;;;;;;;;6067593;23;20483;-92
2024/04/16 01:37:46;;;;;;;3.77;1.00;;;;;;;;;;6062956;23;20466;-88
2024/04/16 01:40:16;;;;;;;2.20;0.80;;;;;;;;;;6091290;23;20471;-90
2024/04/16 01:42:48;;;;;;;1.20;0.90;;;;;;;;;;6053872;23;20522;-89
2024/04/16 01:46:07;;;;;;;3.70;0.90;;;;;;;;;;6101810;23;20483;-90
2024/04/16 01:48:37;;;;;;;3.10;1.10;;;;;;;;;;6144786;23;20466;-89
2024/04/16 01:51:21;;;;;;;3.00;0.77;;;;;;;;;;6159833;23;20501;-90
2024/04/16 01:54:25;;;;;;;1.53;0.87;;;;;;;;;;6176272;23;20445;-86
2024/04/16 02:03:47;;;;;;;1.63;0.90;;;;;;;;;;6127481;23;20466;-86
2024/04/16 02:06:25;;;;;;;1.60;0.80;;;;;;;;;;6077818;23;20407;-87
2024/04/16 02:09:16;;;;;;;1.50;0.80;;;;;;;;;;6122256;23;20375;-87
2024/04/16 02:15:10;;;;;;;0.90;0.90;;;;;;;;;;6146399;23;20470;-90
2024/04/16 02:21:22;;;;;;;3.07;0.97;;;;;;;;;;6032152;23;20386;-89
2024/04/16 02:28:13;;;;;;;0.73;0.60;;;;;;;;;;6021493;23;20403;-92
2024/04/16 02:34:23;;;;;;;1.43;1.10;;;;;;;;;;6126128;23;20511;-90
2024/04/16 02:37:29;;;;;;;3.03;1.43;;;;;;;;;;6121967;23;20400;-86
2024/04/16 02:40:16;;;;;;;1.10;1.00;;;;;;;;;;6139550;23;20402;-85
2024/04/16 02:43:10;;;;;;;1.47;1.00;;;;;;;;;;6167955;23;20452;-87
2024/04/16 02:45:59;;;;;;;1.10;0.63;;;;;;;;;;6149756;23;20410;-86
2024/04/16 02:48:40;;;;;;;2.13;0.80;;;;;;;;;;6130960;23;20407;-86
2024/04/16 02:51:28;;;;;;;2.63;1.33;;;;;;;;;;6134832;23;20456;-87
2024/04/16 02:54:00;;;;;;;2.43;0.80;;;;;;;;;;6134741;23;20430;-86
2024/04/16 02:57:14;;;;;;;1.40;0.90;;;;;;;;;;6162690;23;20378;-88
2024/04/16 02:59:40;;;;;;;1.17;1.00;;;;;;;;;;6095549;23;20418;-87
2024/04/16 03:05:08;;;;;;;5.90;0.90;;;;;;;;;;6157412;23;20973;-88
2024/04/16 03:07:58;;;;;;;2.83;1.43;;;;;;;;;;6134166;23;20401;-89
2024/04/16 03:10:34;;;;;;;0.80;0.80;;;;;;;;;;6133066;23;20413;-88
2024/04/16 03:13:08;;;;;;;3.17;1.10;;;;;;;;;;6134085;23;20452;-87
2024/04/16 03:19:46;;;;;;;2.20;0.83;;;;;;;;;;6184324;23;20433;-87
2024/04/16 03:22:22;;;;;;;1.40;0.80;;;;;;;;;;6131201;23;20464;-89
2024/04/16 03:24:58;;;;;;;2.73;0.70;;;;;;;;;;6133699;23;20448;-90
2024/04/16 03:27:35;;;;;;;4.63;1.20;;;;;;;;;;6142162;23;20406;-89
2024/04/16 03:33:54;;;;;;;2.77;1.20;;;;;;;;;;6100675;23;21143;-86
2024/04/16 03:39:27;;;;;;;5.00;0.90;;;;;;;;;;6179320;23;20800;-86
2024/04/16 03:42:31;;;;;;;1.13;0.87;;;;;;;;;;6165505;23;20461;-88
2024/04/16 03:45:35;;;;;;;5.10;1.07;;;;;;;;;;6129912;23;20468;-88
2024/04/16 03:48:24;;;;;;;;;;;;;;;;;;;;;
2024/04/16 03:51:04;;;;;;;2.03;0.80;;;;;;;;;;6170690;23;20395;-89
2024/04/16 03:53:49;;;;;;;5.40;1.17;;;;;;;;;;6126445;23;21051;-90
2024/04/16 03:56:59;;;;;;;3.47;1.00;;;;;;;;;;6150937;23;20446;-89
2024/04/16 04:03:03;;;;;;;5.60;1.00;;;;;;;;;;6151447;23;20991;-87
2024/04/16 04:06:10;;;;;;;1.47;1.27;;;;;;;;;;6099241;23;20734;-87
2024/04/16 04:08:50;;;;;;;5.30;1.20;;;;;;;;;;6129223;23;20748;-86
2024/04/16 04:11:20;;;;;;;2.77;1.40;;;;;;;;;;6128714;23;20402;-85
2024/04/16 04:14:18;;;;;;;3.20;1.63;;;;;;;;;;6127858;23;20437;-86
2024/04/16 04:20:38;;;;;;;3.30;1.23;;;;;;;;;;6151275;23;20399;-85
2024/04/16 04:26:09;;;;;;;3.00;1.30;;;;;;;;;;6136063;23;20410;-88
2024/04/16 04:28:57;;;;;;;;;;;;;;;;;;;;;
2024/04/16 04:31:48;;;;;;;4.17;1.70;;;;;;;;;;6127167;23;20419;-89
2024/04/16 04:34:52;;;;;;;2.20;1.33;;;;;;;;;;6093186;23;20892;-88
2024/04/16 04:37:35;;;;;;;2.43;0.90;;;;;;;;;;6124226;23;20415;-86
2024/04/16 04:40:23;;;;;;;3.90;1.20;;;;;;;;;;6127916;23;20442;-88
2024/04/16 04:42:55;;;;;;;2.23;1.50;;;;;;;;;;6125602;23;20437;-88
2024/04/16 04:45:51;;;;;;;4.00;1.17;;;;;;;;;;6131211;23;20414;-87
2024/04/16 04:51:57;;;;;;;1.03;0.93;;;;;;;;;;6112328;23;20408;-86
2024/04/16 04:54:27;;;;;;;2.93;1.47;;;;;;;;;;6142183;23;20430;-88
2024/04/16 04:57:06;;;;;;;2.93;0.77;;;;;;;;;;6147405;23;20413;-89
2024/04/16 05:02:36;;;;;;;0.70;0.60;;;;;;;;;;6139945;23;20423;-87
2024/04/16 05:05:05;;;;;;;3.53;0.80;;;;;;;;;;6127272;23;20443;-86
2024/04/16 05:07:42;;;;;;;1.20;0.80;;;;;;;;;;6127113;23;20417;-85
2024/04/16 05:10:29;;;;;;;2.60;0.90;;;;;;;;;;6115066;23;20474;-90
2024/04/16 05:13:20;;;;;;;1.13;0.70;;;;;;;;;;6123627;23;20427;-86
2024/04/16 05:16:24;;;;;;;2.30;0.90;;;;;;;;;;6142982;23;20453;-86
2024/04/16 05:19:41;;;;;;;2.83;0.77;;;;;;;;;;6149250;23;20401;-89
2024/04/16 05:22:37;;;;;;;1.60;1.30;;;;;;;;;;6076451;23;20408;-86
2024/04/16 05:25:09;;;;;;;3.70;1.50;;;;;;;;;;6103705;23;20449;-87
2024/04/16 05:27:44;;;;;;;1.53;1.30;;;;;;;;;;6119672;23;20421;-88
2024/04/16 05:30:31;;;;;;;2.43;1.70;;;;;;;;;;6127156;23;20442;-88
2024/04/16 05:33:07;;;;;;;3.50;1.60;;;;;;;;;;6105594;23;20449;-87
2024/04/16 05:36:03;;;;;;;2.80;1.53;;;;;;;;;;6126964;23;20419;-86
2024/04/16 05:38:37;;;;;;;3.10;1.83;;;;;;;;;;6104126;23;21166;-87
2024/04/16 05:41:24;;;;;;;3.53;1.43;;;;;;;;;;6154139;23;20859;-86
2024/04/16 05:43:59;;;;;;;3.37;1.70;;;;;;;;;;6129843;23;20442;-87
2024/04/16 05:46:35;;;;;;;2.03;1.70;;;;;;;;;;6134188;23;20524;-84
2024/04/16 05:49:36;;;;;;;2.77;1.60;;;;;;;;;;6149938;23;20521;-88
2024/04/16 05:52:36;;;;;;;2.57;1.83;;;;;;;;;;6151924;23;20471;-88
2024/04/16 05:55:24;;;;;;;1.97;1.03;;;;;;;;;;6109416;23;20406;-87
2024/04/16 06:00:57;;;;;;;3.90;1.27;;;;;;;;;;6142967;23;20470;-88
2024/04/16 06:04:07;;;;;;;4.37;1.77;;;;;;;;;;6136228;23;20526;-89
2024/04/16 06:06:55;;;;;;;1.77;1.07;;;;;;;;;;6175766;23;20402;-89
2024/04/16 06:09:30;;;;;;;1.20;1.10;;;;;;;;;;6153634;23;20393;-89
2024/04/16 06:12:17;;;;;;;2.27;1.17;;;;;;;;;;6121936;23;20378;-89
2024/04/16 06:14:59;;;;;;;2.23;1.10;;;;;;;;;;6145647;23;20494;-90
2024/04/16 06:17:45;;;;;;;2.73;1.63;;;;;;;;;;6119502;23;20408;-89
2024/04/16 06:20:33;;;;;;;2.33;1.30;;;;;;;;;;6116874;23;20414;-87
2024/04/16 06:23:33;;;;;;;2.10;1.23;;;;;;;;;;6106044;23;20460;-85
2024/04/16 06:26:05;;;;;;;1.47;1.37;;;;;;;;;;6080778;23;20411;-87
2024/04/16 06:28:46;;;;;;;4.80;1.70;;;;;;;;;;6093059;23;20429;-87
2024/04/16 06:31:20;;;;;;;1.27;1.17;;;;;;;;;;6125841;23;20399;-87
2024/04/16 06:34:13;;;;;;;3.77;1.33;;;;;;;;;;6083408;23;20422;-85
2024/04/16 06:36:51;;;;;;;2.20;1.30;;;;;;;;;;6102340;23;20411;-86
2024/04/16 06:39:37;;;;;;;3.40;1.67;;;;;;;;;;6124653;23;20426;-89
2024/04/16 06:42:13;;;;;;;3.40;1.57;;;;;;;;;;6113015;23;20411;-88
2024/04/16 06:47:43;;;;;;;3.23;1.70;;;;;;;;;;6122428;23;20417;-89
2024/04/16 06:50:10;;;;;;;4.10;1.50;;;;;;;;;;6102202;23;20414;-87
2024/04/16 06:52:55;;;;;;;2.07;1.63;;;;;;;;;;6133694;23;20426;-88
2024/04/16 06:55:52;;;;;;;;;;;;;;;;;;;;;
2024/04/16 06:58:54;;;;;;;1.83;1.30;;;;;;;;;;6127317;23;20399;-87
2024/04/16 07:01:50;;;;;;;2.90;1.57;;;;;;;;;;5934555;24;20405;-88
2024/04/16 07:04:45;;;;;;;2.73;1.40;;;;;;;;;;5937747;23;21146;-85
2024/04/16 07:07:23;;;;;;;4.50;1.60;;;;;;;;;;6125403;23;20423;-87
2024/04/16 07:10:02;;;;;;;4.60;1.50;;;;;;;;;;6101177;23;20426;-87
2024/04/16 07:12:35;;;;;;;4.30;1.00;;;;;;;;;;6098287;23;20410;-86
2024/04/16 07:15:02;;;;;;;0.73;0.60;;;;;;;;;;6102051;23;20403;-88
2024/04/16 07:21:15;;;;;;;1.53;1.27;;;;;;;;;;6082812;23;20420;-89
2024/04/16 07:23:53;;;;;;;2.40;0.80;;;;;;;;;;6078981;23;20438;-88
2024/04/16 07:26:22;;;;;;;1.80;0.83;;;;;;;;;;6127264;23;20466;-89
2024/04/16 07:28:59;;;;;;;0.70;0.70;;;;;;;;;;6151007;23;20478;-90
2024/04/16 07:31:37;;;;;;;0.80;0.70;;;;;;;;;;6129786;23;20466;-86
2024/04/16 07:34:23;;;;;;;2.00;0.70;;;;;;;;;;6108805;23;20426;-87
2024/04/16 07:37:21;;;;;;;1.87;0.80;;;;;;;;;;6112394;23;20413;-84
2024/04/16 07:40:15;;;;;;;1.80;0.97;;;;;;;;;;6156403;23;20451;-86
2024/04/16 07:42:51;;;;;;;0.97;0.90;;;;;;;;;;6119741;23;20427;-87
2024/04/16 07:45:31;;;;;;;1.60;0.70;;;;;;;;;;6102461;23;20438;-86
2024/04/16 07:48:06;;;;;;;1.30;0.70;;;;;;;;;;6129812;23;20440;-86
2024/04/16 07:51:17;;;;;;;2.50;0.60;;;;;;;;;;6097907;23;20411;-86
2024/04/16 07:53:57;;;;;;;1.90;0.97;;;;;;;;;;6107152;23;21025;-87
2024/04/16 07:56:33;;;;;;;0.60;0.60;;;;;;;;;;6105169;23;20404;-87
2024/04/16 07:59:04;;;;;;;1.10;0.60;;;;;;;;;;6105638;23;20406;-87
2024/04/16 08:01:33;;;;;;;4.30;0.90;;;;;;;;;;6126412;23;20399;-87
2024/04/16 08:04:19;;;;;;;1.63;0.60;;;;;;;;;;6126507;23;20442;-86
2024/04/16 08:06:48;;;;;;;0.80;0.80;;;;;;;;;;6091194;23;20455;-86
2024/04/16 08:09:26;;;;;;;1.23;0.80;;;;;;;;;;6102157;23;20414;-85
2024/04/16 08:12:11;;;;;;;1.83;0.73;;;;;;;;;;6101271;23;20411;-88
2024/04/16 08:17:47;;;;;;;;;;;;;;;;;;;;;
2024/04/16 08:20:20;;;;;;;2.23;1.87;;;;;;;;;;6126677;23;20410;-85
2024/04/16 08:22:51;;;;;;;0.80;0.80;;;;;;;;;;6101857;23;20426;-86
2024/04/16 08:25:30;;;;;;;1.23;1.20;;;;;;;;;;6101884;23;20769;-88
2024/04/16 08:27:59;;;;;;;1.67;1.03;;;;;;;;;;6099768;23;20418;-88
2024/04/16 08:30:34;;;;;;;1.87;0.93;;;;;;;;;;6125292;23;20441;-87
2024/04/16 08:33:03;;;;;;;0.80;0.80;;;;;;;;;;6124208;23;20476;-86
2024/04/16 08:38:30;;;;;;;1.20;1.10;;;;;;;;;;6124698;23;20827;-87
2024/04/16 08:41:05;;;;;;;0.80;0.80;;;;;;;;;;6126651;23;20407;-87
2024/04/16 08:43:45;;;;;;;2.77;1.17;;;;;;;;;;6105571;23;20452;-86
2024/04/16 08:46:33;;;;;;;1.57;1.47;;;;;;;;;;6109239;23;20425;-88
2024/04/16 08:49:33;;;;;;;1.40;1.30;;;;;;;;;;6110897;23;20399;-86
2024/04/16 08:52:28;;;;;;;2.90;0.93;;;;;;;;;;6107674;23;20407;-86
2024/04/16 08:55:00;;;;;;;3.03;1.37;;;;;;;;;;6111279;23;20407;-86
2024/04/16 08:58:00;;;;;;;1.90;1.47;;;;;;;;;;6140060;23;20434;-87
2024/04/16 09:01:06;;;;;;;1.20;1.10;;;;;;;;;;6154033;23;20394;-86
2024/04/16 09:03:39;;;;;;;2.43;1.43;;;;;;;;;;6104626;23;20458;-86
2024/04/16 09:06:15;;;;;;;5.70;2.10;;;;;;;;;;6107457;23;20429;-89
2024/04/16 09:08:50;;;;;;;2.03;1.50;;;;;;;;;;6103224;23;20780;-87
2024/04/16 09:11:17;;;;;;;2.83;1.63;;;;;;;;;;6128695;23;20422;-87
2024/04/16 09:14:19;;;;;;;4.43;2.07;;;;;;;;;;6155417;23;20475;-86
2024/04/16 09:17:24;;;;;;;3.50;2.30;;;;;;;;;;6111074;23;20421;-86
2024/04/16 09:20:19;;;;;;;3.70;2.40;;;;;;;;;;6032712;23;20429;-89
2024/04/16 09:22:50;;;;;;;3.63;1.70;;;;;;;;;;6091506;23;20439;-89
2024/04/16 09:25:21;;;;;;;2.57;1.37;;;;;;;;;;6110251;23;20641;-85
2024/04/16 09:28:14;;;;;;;2.30;1.40;;;;;;;;;;6110224;23;20831;-84
2024/04/16 09:31:22;;;;;;;2.13;1.33;;;;;;;;;;6108074;23;20851;-87
2024/04/16 09:34:11;;;;;;;3.40;1.30;;;;;;;;;;6110133;23;20422;-85
2024/04/16 09:36:50;;;;;;;3.80;1.23;;;;;;;;;;6102855;23;20734;-87
2024/04/16 09:39:23;;;;;;;1.43;1.33;;;;;;;;;;6102245;23;20407;-90
2024/04/16 09:42:05;;;;;;;2.83;1.60;;;;;;;;;;6098789;23;20399;-85
2024/04/16 09:44:36;;;;;;;3.33;1.60;;;;;;;;;;6128266;23;20447;-86
2024/04/16 09:47:14;;;;;;;1.60;1.07;;;;;;;;;;6103897;23;20487;-83
2024/04/16 09:49:54;;;;;;;2.40;1.20;;;;;;;;;;6127545;23;20395;-85
2024/04/16 09:52:26;;;;;;;3.93;1.10;;;;;;;;;;6101505;23;20407;-86
2024/04/16 09:54:59;;;;;;;4.80;2.30;;;;;;;;;;6104371;23;20759;-86
2024/04/16 09:57:33;;;;;;;5.47;1.20;;;;;;;;;;6106309;23;20450;-87
2024/04/16 10:00:04;;;;;;;2.60;1.50;;;;;;;;;;6103216;23;20413;-87
2024/04/16 10:02:36;;;;;;;4.47;1.20;;;;;;;;;;6128878;23;20404;-87
2024/04/16 10:05:04;;;;;;;2.50;0.97;;;;;;;;;;6102387;23;20442;-86
2024/04/16 10:07:34;;;;;;;2.20;1.10;;;;;;;;;;6104072;23;20417;-84
2024/04/16 10:10:00;;;;;;;3.30;1.20;;;;;;;;;;6102199;23;20411;-86
2024/04/16 10:12:29;;;;;;;3.20;1.23;;;;;;;;;;6105562;23;20867;-85
2024/04/16 10:15:03;;;;;;;2.93;0.80;;;;;;;;;;6105637;23;20402;-85
2024/04/16 10:17:30;;;;;;;1.07;0.63;;;;;;;;;;6105693;23;20409;-86
2024/04/16 10:20:12;;;;;;;3.13;1.37;;;;;;;;;;6123369;23;20387;-88
2024/04/16 10:22:41;;;;;;;2.17;1.00;;;;;;;;;;6123041;23;20470;-86
2024/04/16 10:25:16;;;;;;;1.20;0.80;;;;;;;;;;6117081;23;20459;-85
2024/04/16 10:27:51;;;;;;;1.53;1.20;;;;;;;;;;6100313;23;20734;-86
2024/04/16 10:30:28;;;;;;;1.80;1.00;;;;;;;;;;6113362;23;20389;-85
2024/04/16 10:33:00;;;;;;;2.47;0.90;;;;;;;;;;6088675;23;20453;-86
2024/04/16 10:35:34;;;;;;;2.00;1.40;;;;;;;;;;6113958;23;20410;-84
2024/04/16 10:38:15;;;;;;;2.23;0.67;;;;;;;;;;6140990;23;20444;-88
2024/04/16 10:43:44;;;;;;;2.33;1.07;;;;;;;;;;6125208;23;20944;-85
2024/04/16 10:46:14;;;;;;;3.43;1.07;;;;;;;;;;6128731;23;20403;-87
2024/04/16 10:48:46;;;;;;;1.73;1.23;;;;;;;;;;6141297;23;20433;-86
2024/04/16 10:51:23;;;;;;;4.40;1.03;;;;;;;;;;6115723;23;20399;-87
2024/04/16 10:54:07;;;;;;;4.73;2.00;;;;;;;;;;6112742;23;20423;-87
2024/04/16 10:57:00;;;;;;;7.10;1.43;;;;;;;;;;6166136;23;20395;-85
2024/04/16 10:59:39;;;;;;;3.90;1.30;;;;;;;;;;6113932;23;20391;-86
2024/04/16 11:02:22;;;;;;;1.67;1.20;;;;;;;;;;6116345;23;20413;-85
2024/04/16 11:04:53;;;;;;;2.57;1.20;;;;;;;;;;6115954;23;20423;-86
2024/04/16 11:07:35;;;;;;;2.87;1.10;;;;;;;;;;6114629;23;20418;-85
2024/04/16 11:10:14;;;;;;;1.70;1.00;;;;;;;;;;6149773;23;20410;-86
2024/04/16 11:12:52;;;;;;;1.17;1.00;;;;;;;;;;6120871;23;20427;-87
2024/04/16 11:15:24;;;;;;;1.40;1.23;;;;;;;;;;6108569;23;20406;-86
2024/04/16 11:17:50;;;;;;;3.60;1.20;;;;;;;;;;6132362;23;20426;-86
2024/04/16 11:20:23;;;;;;;1.43;1.23;;;;;;;;;;6112007;23;20403;-87
2024/04/16 11:22:56;;;;;;;1.67;1.40;;;;;;;;;;6107481;23;20418;-87
2024/04/16 11:25:25;;;;;;;3.43;1.30;;;;;;;;;;6107834;23;20439;-88
2024/04/16 11:27:58;;;;;;;5.93;1.57;;;;;;;;;;6109236;23;20403;-89
2024/04/16 11:30:34;;;;;;;2.43;1.00;;;;;;;;;;6091111;23;20730;-87
2024/04/16 11:33:11;;;;;;;2.00;1.50;;;;;;;;;;6115919;23;20427;-87
2024/04/16 11:35:38;;;;;;;3.27;1.13;;;;;;;;;;6110294;23;20402;-89
2024/04/16 11:38:13;;;;;;;2.50;0.80;;;;;;;;;;6148413;23;20391;-90
2024/04/16 11:41:01;;;;;;;0.90;0.60;;;;;;;;;;6108263;23;20909;-89
2024/04/16 11:43:37;;;;;;;6.23;1.00;;;;;;;;;;6106890;23;20452;-87
2024/04/16 11:46:04;;;;;;;1.73;1.10;;;;;;;;;;6107503;23;20422;-87
2024/04/16 11:48:31;;;;;;;1.43;0.70;;;;;;;;;;6105098;23;20406;-87
2024/04/16 11:51:08;;;;;;;0.93;0.80;;;;;;;;;;6108164;23;20399;-86
2024/04/16 11:53:44;;;;;;;1.73;0.90;;;;;;;;;;6104107;23;20777;-88
2024/04/16 11:56:25;;;;;;;0.40;0.40;;;;;;;;;;6106348;23;20402;-86
2024/04/16 11:59:00;;;;;;;1.63;0.90;;;;;;;;;;6106867;23;20419;-88
2024/04/16 12:01:32;;;;;;;0.70;0.67;;;;;;;;;;6101413;23;21034;-90
2024/04/16 12:04:07;;;;;;;0.57;0.50;;;;;;;;;;6080672;23;20482;-89
2024/04/16 12:06:42;;;;;;;0.60;0.60;;;;;;;;;;6082478;23;20918;-87
2024/04/16 12:09:16;;;;;;;0.80;0.70;;;;;;;;;;6082122;23;20736;-87
2024/04/16 12:11:56;;;;;;;1.77;0.90;;;;;;;;;;6081390;23;20403;-89
2024/04/16 12:15:07;;;;;;;0.57;0.57;;;;;;;;;;6082997;23;20424;-86
2024/04/16 12:17:51;;;;;;;0.80;0.63;;;;;;;;;;6077810;23;20409;-89
2024/04/16 12:20:34;;;;;;;1.90;0.90;;;;;;;;;;6079493;23;20442;-88
2024/04/16 12:23:07;;;;;;;0.90;0.80;;;;;;;;;;6078942;23;20674;-87
2024/04/16 12:25:41;;;;;;;1.47;0.70;;;;;;;;;;6076856;23;20753;-87
2024/04/16 12:28:20;;;;;;;1.13;0.80;;;;;;;;;;6079377;23;20399;-87
2024/04/16 12:31:15;;;;;;;0.53;0.50;;;;;;;;;;6111046;23;20371;-87
2024/04/16 12:33:45;;;;;;;2.00;1.80;;;;;;;;;;6085223;23;20427;-88
2024/04/16 12:39:03;;;;;;;1.27;0.80;;;;;;;;;;6134399;23;20392;-87
2024/04/16 12:41:58;;;;;;;1.00;0.80;;;;;;;;;;6081035;23;20411;-88
2024/04/16 12:44:34;;;;;;;1.90;1.10;;;;;;;;;;6079220;23;20448;-88
2024/04/16 12:47:22;;;;;;;1.83;1.60;;;;;;;;;;6084153;23;20412;-88
2024/04/16 12:49:56;;;;;;;1.80;1.00;;;;;;;;;;6100198;23;21139;-88
2024/04/16 12:52:57;;;;;;;;;;;;;;;;;;;;;
2024/04/16 12:55:50;;;;;;;2.53;1.10;;;;;;;;;;6139929;23;20407;-87
2024/04/16 12:58:27;;;;;;;6.07;1.53;;;;;;;;;;6089437;23;20404;-89
2024/04/16 13:01:04;;;;;;;;;;;;;;;;;;;;;
2024/04/16 13:03:38;;;;;;;3.30;1.87;;;;;;;;;;6120768;23;20455;-88
2024/04/16 13:06:07;;;;;;;4.07;1.77;;;;;;;;;;6097670;23;20494;-89
2024/04/16 13:08:57;;;;;;;3.23;1.23;;;;;;;;;;6107603;23;20399;-87
2024/04/16 13:11:48;;;;;;;2.20;1.23;;;;;;;;;;6130932;23;20499;-84
2024/04/16 13:14:36;;;;;;;5.77;1.63;;;;;;;;;;6083210;23;20428;-87
2024/04/16 13:17:47;;;;;;;2.97;1.47;;;;;;;;;;6109142;23;20379;-86
2024/04/16 13:20:28;;;;;;;4.30;1.37;;;;;;;;;;6081660;23;20411;-89
2024/04/16 13:23:01;;;;;;;3.20;1.20;;;;;;;;;;6097223;23;20428;-86
2024/04/16 13:25:36;;;;;;;1.10;1.00;;;;;;;;;;6093404;23;20536;-90
2024/04/16 13:28:20;;;;;;;;;;;;;;;;;;;;;
2024/04/16 13:31:10;;;;;;;;;;;;;;;;;;;;;
2024/04/16 13:34:16;;;;;;;2.30;0.80;;;;;;;;;;6110183;23;20420;-87
2024/04/16 13:37:05;;;;;;;;;;;;;;;;;;;;;
2024/04/16 13:40:19;;;;;;;;;;;;;;;;;;;;;
2024/04/16 13:42:58;;;;;;;0.80;0.80;;;;;;;;;;6097233;23;20921;-88
2024/04/16 13:45:31;;;;;;;1.90;0.83;;;;;;;;;;6107629;23;20447;-88
2024/04/16 13:48:03;;;;;;;0.97;0.90;;;;;;;;;;6086493;23;20400;-87
2024/04/16 13:50:37;;;;;;;1.70;0.80;;;;;;;;;;6086285;23;20400;-86
2024/04/16 13:53:35;;;;;;;0.80;0.80;;;;;;;;;;6109845;23;20419;-88
2024/04/16 13:56:46;;;;;;;2.43;0.90;;;;;;;;;;6044871;23;20422;-88
2024/04/16 13:59:35;;;;;;;;;;;;;;;;;;;;;
2024/04/16 14:02:03;;;;;;;1.03;0.70;;;;;;;;;;6110096;23;20411;-85
2024/04/16 14:05:02;;;;;;;;;;;;;;;;;;;;;
2024/04/16 14:07:35;;;;;;;0.83;0.80;;;;;;;;;;6168078;23;20414;-86
2024/04/16 14:10:12;;;;;;;0.50;0.50;;;;;;;;;;6143788;23;20412;-86
2024/04/16 14:12:41;;;;;;;3.27;0.53;;;;;;;;;;6137708;23;20433;-87
2024/04/16 14:15:10;;;;;;;0.70;0.70;;;;;;;;;;6151952;23;20471;-88
2024/04/16 14:17:41;;;;;;;2.47;0.80;;;;;;;;;;6143917;23;20413;-89
2024/04/16 14:20:11;;;;;;;0.97;0.80;;;;;;;;;;6142871;23;20393;-84
2024/04/16 14:22:40;;;;;;;3.37;1.00;;;;;;;;;;6146976;23;20752;-86
2024/04/16 14:25:10;;;;;;;2.53;1.20;;;;;;;;;;6153316;23;20795;-86
2024/04/16 14:27:42;;;;;;;1.87;1.17;;;;;;;;;;6160403;23;20465;-88
2024/04/16 14:30:10;;;;;;;1.00;0.90;;;;;;;;;;6137460;23;20447;-91
2024/04/16 14:35:26;;;;;;;1.97;1.00;;;;;;;;;;6204115;23;20436;-89
2024/04/16 14:38:04;;;;;;;;;;;;;;;;;;;;;
2024/04/16 14:43:15;;;;;;;2.57;1.33;;;;;;;;;;6158158;23;20433;-88
2024/04/16 14:45:51;;;;;;;3.63;3.10;;;;;;;;;;6161208;23;20468;-91
2024/04/16 14:48:19;;;;;;;1.33;1.23;;;;;;;;;;6135167;23;20461;-90
2024/04/16 14:50:46;;;;;;;1.33;1.10;;;;;;;;;;6144767;23;20446;-90
2024/04/16 14:53:18;;;;;;;2.23;1.20;;;;;;;;;;6179336;23;20486;-89
2024/04/16 14:55:49;;;;;;;2.23;1.00;;;;;;;;;;6156195;23;20451;-89
2024/04/16 14:58:18;;;;;;;1.00;0.80;;;;;;;;;;6156022;23;20466;-90
2024/04/16 15:00:48;;;;;;;0.90;0.90;;;;;;;;;;6154560;23;20463;-88
2024/04/16 15:03:17;;;;;;;1.07;0.97;;;;;;;;;;6168897;23;20430;-87
2024/04/16 15:05:45;;;;;;;1.47;0.93;;;;;;;;;;6142866;23;20442;-87
2024/04/16 15:08:12;;;;;;;1.20;0.90;;;;;;;;;;6142709;23;20401;-85
2024/04/16 15:10:44;;;;;;;1.03;0.90;;;;;;;;;;6142462;23;20402;-87
2024/04/16 15:13:12;;;;;;;2.60;1.87;;;;;;;;;;6119686;23;20424;-86
2024/04/16 15:15:54;;;;;;;1.27;0.67;;;;;;;;;;6139866;23;20402;-87
2024/04/16 15:18:22;;;;;;;1.10;1.03;;;;;;;;;;6140730;23;20402;-90
2024/04/16 15:20:55;;;;;;;1.50;1.00;;;;;;;;;;6150980;23;20410;-89
2024/04/16 15:23:24;;;;;;;1.30;1.20;;;;;;;;;;6129704;23;20426;-89
2024/04/16 15:25:58;;;;;;;2.17;1.20;;;;;;;;;;6147328;23;20731;-87
2024/04/16 15:28:28;;;;;;;6.23;4.17;;;;;;;;;;6146676;23;20894;-87
2024/04/16 15:30:58;;;;;;;1.47;1.03;;;;;;;;;;6149098;23;20396;-89
2024/04/16 15:33:26;;;;;;;3.00;1.23;;;;;;;;;;6159054;23;20492;-89
2024/04/16 15:35:55;;;;;;;0.80;0.80;;;;;;;;;;6161101;23;20461;-89
2024/04/16 15:42:27;;;;;;;3.00;1.37;;;;;;;;;;6150600;23;20375;-89
2024/04/16 15:45:04;;;;;;;1.53;1.00;;;;;;;;;;6120825;23;20514;-89
2024/04/16 15:47:31;;;;;;;1.93;1.10;;;;;;;;;;6160426;23;20454;-88
2024/04/16 15:49:58;;;;;;;1.53;0.90;;;;;;;;;;6159574;23;20474;-89
2024/04/16 15:52:33;;;;;;;1.70;1.00;;;;;;;;;;6161087;23;20465;-89
2024/04/16 15:55:00;;;;;;;3.43;1.23;;;;;;;;;;6177371;23;20411;-88
2024/04/16 15:57:37;;;;;;;3.03;1.03;;;;;;;;;;6149129;23;20410;-88
2024/04/16 16:00:04;;;;;;;2.20;1.97;;;;;;;;;;6143479;23;20411;-88
2024/04/16 16:02:34;;;;;;;1.73;1.40;;;;;;;;;;6143299;23;20476;-88
2024/04/16 16:05:03;;;;;;;1.63;1.53;;;;;;;;;;6144572;23;20445;-89
2024/04/16 16:07:30;;;;;;;1.97;1.10;;;;;;;;;;6145733;23;20401;-89
2024/04/16 16:10:02;;;;;;;1.10;1.00;;;;;;;;;;6146546;23;20440;-91
2024/04/16 16:12:31;;;;;;;6.60;2.83;;;;;;;;;;6159121;23;20465;-88
2024/04/16 16:15:00;;;;;;;3.03;1.00;;;;;;;;;;6157301;23;20485;-90
2024/04/16 16:17:29;;;;;;;1.37;1.27;;;;;;;;;;6158054;23;20466;-88
2024/04/16 16:20:03;;;;;;;1.77;1.47;;;;;;;;;;6182908;23;20486;-86
2024/04/16 16:22:34;;;;;;;1.50;1.30;;;;;;;;;;6182667;23;20468;-87
2024/04/16 16:25:09;;;;;;;5.03;3.80;;;;;;;;;;6158697;23;20426;-88
2024/04/16 16:27:47;;;;;;;1.53;1.30;;;;;;;;;;6157061;23;20462;-90
2024/04/16 16:30:24;;;;;;;2.00;1.80;;;;;;;;;;6155900;23;20453;-90
2024/04/16 16:32:58;;;;;;;4.40;1.67;;;;;;;;;;6157400;23;20541;-89
2024/04/16 16:35:25;;;;;;;6.30;2.10;;;;;;;;;;6154740;23;20461;-90
2024/04/16 16:37:51;;;;;;;2.70;1.50;;;;;;;;;;6154616;23;20414;-90
2024/04/16 16:40:22;;;;;;;2.90;2.03;;;;;;;;;;6151307;23;20420;-89
2024/04/16 16:42:54;;;;;;;2.90;2.00;;;;;;;;;;6176695;23;20414;-87
2024/04/16 16:45:29;;;;;;;3.40;1.87;;;;;;;;;;6133948;23;20458;-88
2024/04/16 16:47:56;;;;;;;1.93;1.80;;;;;;;;;;6141139;23;20420;-87
2024/04/16 16:50:25;;;;;;;2.27;1.50;;;;;;;;;;6137655;23;20408;-87
2024/04/16 16:53:00;;;;;;;2.50;1.77;;;;;;;;;;6141497;23;20430;-87
2024/04/16 16:55:33;;;;;;;1.47;1.20;;;;;;;;;;6160515;23;20420;-87
2024/04/16 16:58:00;;;;;;;2.20;1.37;;;;;;;;;;6134761;23;20412;-88
2024/04/16 17:00:28;;;;;;;1.43;1.30;;;;;;;;;;6157936;23;20402;-89
2024/04/16 17:03:03;;;;;;;3.10;1.20;;;;;;;;;;6136086;23;20430;-88
2024/04/16 17:05:48;;;;;;;2.10;1.90;;;;;;;;;;6133317;23;20449;-87
2024/04/16 17:08:23;;;;;;;4.33;1.60;;;;;;;;;;6134287;23;20402;-88
2024/04/16 17:10:56;;;;;;;2.10;1.90;;;;;;;;;;6158616;23;20441;-85
2024/04/16 17:13:22;;;;;;;2.20;1.57;;;;;;;;;;6133617;23;20422;-89
2024/04/16 17:15:51;;;;;;;2.30;1.03;;;;;;;;;;6157390;23;20399;-85
2024/04/16 17:18:18;;;;;;;2.37;1.43;;;;;;;;;;6157749;23;20466;-85
2024/04/16 17:20:46;;;;;;;5.53;1.67;;;;;;;;;;6159796;23;20409;-86
2024/04/16 17:23:13;;;;;;;3.93;1.40;;;;;;;;;;6132571;23;20422;-87
2024/04/16 17:25:39;;;;;;;2.77;1.10;;;;;;;;;;6136428;23;20453;-86
2024/04/16 17:28:06;;;;;;;1.77;1.57;;;;;;;;;;6153022;23;20402;-86
2024/04/16 17:30:33;;;;;;;3.37;2.23;;;;;;;;;;6142048;23;20398;-88
2024/04/16 17:33:19;;;;;;;1.50;1.40;;;;;;;;;;6139479;23;20779;-87
2024/04/16 17:35:48;;;;;;;1.67;1.50;;;;;;;;;;6139098;23;20402;-87
2024/04/16 17:38:17;;;;;;;3.57;1.93;;;;;;;;;;6137059;23;21335;-87
2024/04/16 17:40:53;;;;;;;3.60;1.37;;;;;;;;;;6141336;23;20412;-85
2024/04/16 17:43:22;;;;;;;1.77;1.43;;;;;;;;;;6140985;23;20432;-85
2024/04/16 17:45:52;;;;;;;10.40;6.67;;;;;;;;;;6143154;23;20442;-86
2024/04/16 17:48:18;;;;;;;2.07;1.87;;;;;;;;;;6140180;23;20402;-85
2024/04/16 17:50:45;;;;;;;2.17;1.53;;;;;;;;;;6162774;23;20965;-87
2024/04/16 17:53:18;;;;;;;1.93;1.70;;;;;;;;;;6138670;23;20422;-86
2024/04/16 17:56:08;;;;;;;1.47;1.37;;;;;;;;;;6139458;23;20739;-85
2024/04/16 17:58:45;;;;;;;1.40;1.30;;;;;;;;;;6131906;23;20407;-86
2024/04/16 18:01:12;;;;;;;2.83;1.77;;;;;;;;;;6125535;23;20402;-90
2024/04/16 18:03:40;;;;;;;2.53;1.63;;;;;;;;;;6167130;23;20460;-87
2024/04/16 18:06:09;;;;;;;2.47;1.63;;;;;;;;;;6140713;23;20575;-87
2024/04/16 18:08:46;;;;;;;1.63;1.20;;;;;;;;;;6161378;23;20459;-87
2024/04/16 18:11:45;;;;;;;2.40;1.90;;;;;;;;;;6084279;23;20396;-88
2024/04/16 18:14:14;;;;;;;2.50;2.20;;;;;;;;;;6083183;23;20484;-87
2024/04/16 18:16:41;;;;;;;2.20;1.50;;;;;;;;;;6138773;23;20406;-86
2024/04/16 18:25:18;;;;;;;1.67;1.10;;;;;;;;;;5468588;25;20632;-87
2024/04/16 18:27:46;;;;;;;1.70;1.40;;;;;;;;;;5498817;25;20508;-89
2024/04/16 18:30:15;;;;;;;1.50;1.40;;;;;;;;;;5431646;26;20519;-87
2024/04/16 18:32:45;;;;;;;1.50;1.40;;;;;;;;;;5460040;25;20549;-87
2024/04/16 18:35:13;;;;;;;2.13;1.60;;;;;;;;;;5452689;25;20474;-85
2024/04/16 18:37:40;;;;;;;2.07;1.70;;;;;;;;;;5462950;25;20531;-89
2024/04/16 18:40:09;;;;;;;1.60;1.50;;;;;;;;;;5474353;25;20482;-86
2024/04/16 18:42:37;;;;;;;2.20;1.30;;;;;;;;;;5456791;25;20476;-87